createdAt,value
2023-05-14T00:00:40.608Z,100.00
2023-05-14T00:03:07.237Z,100.00
2023-05-14T00:05:33.771Z,100.00
2023-05-14T00:08:00.411Z,100.00
2023-05-14T00:10:27.535Z,100.00
2023-05-14T00:12:54.160Z,100.00
2023-05-14T00:15:20.569Z,100.00
2023-05-14T00:17:47.185Z,100.00
2023-05-14T00:20:13.892Z,100.00
2023-05-14T00:22:40.520Z,100.00
2023-05-14T00:25:08.014Z,100.00
2023-05-14T00:27:35.517Z,100.00
2023-05-14T00:30:02.669Z,100.00
2023-05-14T00:32:29.185Z,100.00
2023-05-14T00:34:55.887Z,100.00
2023-05-14T00:37:22.390Z,100.00
2023-05-14T00:39:49.000Z,100.00
2023-05-14T00:42:15.720Z,100.00
2023-05-14T00:44:42.318Z,100.00
2023-05-14T00:47:08.912Z,100.00
2023-05-14T00:49:35.853Z,100.00
2023-05-14T00:52:02.448Z,100.00
2023-05-14T00:54:29.578Z,100.00
2023-05-14T00:56:56.283Z,100.00
2023-05-14T00:59:22.856Z,100.00
2023-05-14T01:01:49.529Z,100.00
2023-05-14T01:04:16.220Z,100.00
2023-05-14T01:07:17.466Z,100.00
2023-05-14T01:09:59.606Z,100.00
2023-05-14T01:13:22.894Z,100.00
2023-05-14T01:15:49.548Z,100.00
2023-05-14T01:18:19.182Z,100.00
2023-05-14T01:20:46.297Z,100.00
2023-05-14T01:23:32.720Z,100.00
2023-05-14T01:26:20.988Z,100.00
2023-05-14T01:29:22.034Z,100.00
2023-05-14T01:32:10.494Z,100.00
2023-05-14T01:35:00.216Z,100.00
2023-05-14T01:37:48.815Z,100.00
2023-05-14T01:40:15.729Z,100.00
2023-05-14T01:42:43.915Z,100.00
2023-05-14T01:45:10.712Z,100.00
2023-05-14T01:47:37.193Z,100.00
2023-05-14T01:50:03.832Z,100.00
2023-05-14T01:52:30.558Z,100.00
2023-05-14T01:54:58.498Z,100.00
2023-05-14T01:57:25.150Z,100.00
2023-05-14T01:59:51.581Z,100.00
2023-05-14T02:02:18.285Z,100.00
2023-05-14T02:04:44.875Z,100.00
2023-05-14T02:07:11.360Z,100.00
2023-05-14T02:09:38.026Z,100.00
2023-05-14T02:12:06.472Z,100.00
2023-05-14T02:14:33.008Z,100.00
2023-05-14T02:16:59.582Z,100.00
2023-05-14T02:19:26.251Z,100.00
2023-05-14T02:21:52.819Z,100.00
2023-05-14T02:24:19.313Z,100.00
2023-05-14T02:26:46.182Z,100.00
2023-05-14T02:29:12.948Z,100.00
2023-05-14T02:31:39.552Z,100.00
2023-05-14T02:34:06.703Z,100.00
2023-05-14T02:36:33.650Z,100.00
2023-05-14T02:39:04.565Z,100.00
2023-05-14T02:41:31.232Z,100.00
2023-05-14T02:43:57.697Z,100.00
2023-05-14T02:46:24.714Z,100.00
2023-05-14T02:48:51.466Z,100.00
2023-05-14T02:51:20.875Z,100.00
2023-05-14T02:53:47.585Z,100.00
2023-05-14T02:56:14.073Z,100.00
2023-05-14T02:58:41.073Z,100.00
2023-05-14T03:01:07.980Z,100.00
2023-05-14T03:03:35.720Z,100.00
2023-05-14T03:06:02.655Z,100.00
2023-05-14T03:08:29.136Z,100.00
2023-05-14T03:10:55.852Z,100.00
2023-05-14T03:13:22.421Z,100.00
2023-05-14T03:15:48.964Z,100.00
2023-05-14T03:18:15.593Z,100.00
2023-05-14T03:20:42.291Z,100.00
2023-05-14T03:23:08.815Z,100.00
2023-05-14T03:25:35.514Z,100.00
2023-05-14T03:28:03.470Z,100.00
2023-05-14T03:30:30.649Z,100.00
2023-05-14T03:32:57.546Z,100.00
2023-05-14T03:35:24.219Z,100.00
2023-05-14T03:37:52.936Z,100.00
2023-05-14T03:40:19.724Z,100.00
2023-05-14T03:42:46.160Z,100.00
2023-05-14T03:45:14.322Z,100.00
2023-05-14T03:47:41.688Z,100.00
2023-05-14T03:50:08.862Z,100.00
2023-05-14T03:52:35.606Z,100.00
2023-05-14T03:55:02.986Z,100.00
2023-05-14T03:57:29.604Z,100.00
2023-05-14T03:59:56.255Z,100.00
2023-05-14T04:02:23.029Z,100.00
2023-05-14T04:04:49.717Z,100.00
2023-05-14T04:07:19.197Z,100.00
2023-05-14T04:09:46.674Z,100.00
2023-05-14T04:12:13.555Z,100.00
2023-05-14T04:14:40.338Z,100.00
2023-05-14T04:17:07.652Z,100.00
2023-05-14T04:19:34.141Z,100.00
2023-05-14T04:22:00.720Z,100.00
2023-05-14T04:24:27.360Z,100.00
2023-05-14T04:26:53.894Z,100.00
2023-05-14T04:29:20.548Z,100.00
2023-05-14T04:31:47.121Z,100.00
2023-05-14T04:34:13.573Z,100.00
2023-05-14T04:36:40.269Z,100.00
2023-05-14T04:39:06.999Z,100.00
2023-05-14T04:41:33.567Z,100.00
2023-05-14T04:44:01.774Z,100.00
2023-05-14T04:46:28.843Z,100.00
2023-05-14T04:48:56.532Z,100.00
2023-05-14T04:51:23.469Z,100.00
2023-05-14T04:53:50.170Z,100.00
2023-05-14T04:56:16.625Z,100.00
2023-05-14T04:58:43.236Z,100.00
2023-05-14T05:01:10.066Z,100.00
2023-05-14T05:03:36.573Z,100.00
2023-05-14T05:06:03.564Z,100.00
2023-05-14T05:08:30.140Z,100.00
2023-05-14T05:10:56.612Z,100.00
2023-05-14T05:13:23.228Z,100.00
2023-05-14T05:15:49.720Z,100.00
2023-05-14T05:18:16.502Z,100.00
2023-05-14T05:20:42.972Z,100.00
2023-05-14T05:23:09.736Z,100.00
2023-05-14T05:25:36.257Z,100.00
2023-05-14T05:28:03.040Z,100.00
2023-05-14T05:30:30.205Z,100.00
2023-05-14T05:32:57.636Z,100.00
2023-05-14T05:35:24.524Z,100.00
2023-05-14T05:37:50.991Z,100.00
2023-05-14T05:40:17.831Z,100.00
2023-05-14T05:42:44.446Z,100.00
2023-05-14T05:45:11.251Z,100.00
2023-05-14T05:47:37.835Z,100.00
2023-05-14T05:50:04.975Z,100.00
2023-05-14T05:52:31.942Z,100.00
2023-05-14T05:54:58.618Z,100.00
2023-05-14T05:57:27.011Z,100.00
2023-05-14T05:59:53.910Z,100.00
2023-05-14T06:02:20.616Z,100.00
2023-05-14T06:04:47.435Z,100.00
2023-05-14T06:07:14.074Z,100.00
2023-05-14T06:09:40.581Z,100.00
2023-05-14T06:12:07.548Z,100.00
2023-05-14T06:14:34.241Z,100.00
2023-05-14T06:17:01.021Z,100.00
2023-05-14T06:19:27.600Z,100.00
2023-05-14T06:22:00.125Z,100.00
2023-05-14T06:24:26.555Z,100.00
2023-05-14T06:26:53.305Z,100.00
2023-05-14T06:29:19.924Z,100.00
2023-05-14T06:31:46.471Z,100.00
2023-05-14T06:34:13.063Z,100.00
2023-05-14T06:36:40.091Z,100.00
2023-05-14T06:39:06.877Z,100.00
2023-05-14T06:41:33.324Z,100.00
2023-05-14T06:44:00.031Z,100.00
2023-05-14T06:46:26.509Z,100.00
2023-05-14T06:48:53.282Z,100.00
2023-05-14T06:51:19.720Z,100.00
2023-05-14T06:53:47.738Z,100.00
2023-05-14T06:56:14.639Z,100.00
2023-05-14T06:58:41.358Z,100.00
2023-05-14T07:01:07.904Z,100.00
2023-05-14T07:03:34.628Z,100.00
2023-05-14T07:06:01.148Z,100.00
2023-05-14T07:08:27.908Z,100.00
2023-05-14T07:10:54.510Z,100.00
2023-05-14T07:13:21.025Z,100.00
2023-05-14T07:15:47.714Z,100.00
2023-05-14T07:18:14.179Z,100.00
2023-05-14T07:20:40.937Z,100.00
2023-05-14T07:23:07.598Z,100.00
2023-05-14T07:25:34.343Z,100.00
2023-05-14T07:28:00.992Z,100.00
2023-05-14T07:30:27.414Z,100.00
2023-05-14T07:32:54.042Z,100.00
2023-05-14T07:35:20.791Z,100.00
2023-05-14T07:37:47.465Z,100.00
2023-05-14T07:40:14.121Z,100.00
2023-05-14T07:42:40.758Z,100.00
2023-05-14T07:45:09.488Z,100.00
2023-05-14T07:47:36.280Z,100.00
2023-05-14T07:50:03.611Z,100.00
2023-05-14T07:52:30.044Z,100.00
2023-05-14T07:54:56.702Z,100.00
2023-05-14T07:57:23.238Z,100.00
2023-05-14T07:59:49.992Z,100.00
2023-05-14T08:02:16.811Z,100.00
2023-05-14T08:04:43.919Z,100.00
2023-05-14T08:07:10.958Z,100.00
2023-05-14T08:09:37.523Z,100.00
2023-05-14T08:12:05.069Z,100.00
2023-05-14T08:14:32.440Z,100.00
2023-05-14T08:16:59.171Z,100.00
2023-05-14T08:19:27.252Z,96.77
2023-05-14T08:21:53.984Z,93.51
2023-05-14T08:24:20.830Z,94.06
2023-05-14T08:26:47.459Z,91.00
2023-05-14T08:29:16.119Z,88.32
2023-05-14T08:31:43.424Z,87.47
2023-05-14T08:34:09.909Z,86.13
2023-05-14T08:36:36.672Z,82.51
2023-05-14T08:39:03.217Z,83.75
2023-05-14T08:41:30.049Z,81.84
2023-05-14T08:44:11.169Z,83.03
2023-05-14T08:46:38.961Z,80.13
2023-05-14T08:49:18.431Z,76.95
2023-05-14T08:51:48.255Z,74.60
2023-05-14T08:54:18.288Z,72.15
2023-05-14T08:56:49.365Z,70.99
2023-05-14T08:59:17.793Z,70.18
2023-05-14T09:01:47.973Z,68.21
2023-05-14T09:04:19.298Z,69.57
2023-05-14T09:06:56.608Z,71.46
2023-05-14T09:09:23.366Z,71.50
2023-05-14T09:11:51.692Z,74.42
2023-05-14T09:14:18.082Z,76.22
2023-05-14T09:16:50.002Z,74.73
2023-05-14T09:19:21.432Z,76.11
2023-05-14T09:21:49.466Z,73.00
2023-05-14T09:24:24.077Z,72.60
2023-05-14T09:26:56.127Z,71.69
2023-05-14T09:29:29.882Z,74.27
2023-05-14T09:31:58.057Z,73.98
2023-05-14T09:34:29.587Z,72.44
2023-05-14T09:37:01.279Z,73.37
2023-05-14T09:39:29.178Z,74.02
2023-05-14T09:41:56.867Z,71.87
2023-05-14T09:44:24.219Z,69.17
2023-05-14T09:46:53.574Z,70.40
2023-05-14T09:49:20.754Z,72.35
2023-05-14T09:51:48.864Z,73.86
2023-05-14T09:54:15.436Z,72.90
2023-05-14T09:56:43.510Z,73.47
2023-05-14T09:59:10.416Z,71.14
2023-05-14T10:01:38.068Z,70.57
2023-05-14T10:04:07.394Z,72.45
2023-05-14T10:06:37.784Z,71.21
2023-05-14T10:09:05.797Z,71.54
2023-05-14T10:11:37.974Z,69.32
2023-05-14T10:14:07.769Z,68.97
2023-05-14T10:16:38.228Z,70.53
2023-05-14T10:19:12.011Z,67.02
2023-05-14T10:21:41.066Z,67.90
2023-05-14T10:24:08.522Z,67.60
2023-05-14T10:26:39.240Z,71.49
2023-05-14T10:29:06.739Z,70.17
2023-05-14T10:31:51.643Z,70.26
2023-05-14T10:34:38.482Z,70.86
2023-05-14T10:37:07.868Z,70.29
2023-05-14T10:39:48.087Z,71.33
2023-05-14T10:42:28.926Z,71.55
2023-05-14T10:45:01.859Z,72.26
2023-05-14T10:47:32.246Z,74.05
2023-05-14T10:50:01.400Z,73.46
2023-05-14T10:52:28.843Z,72.67
2023-05-14T10:55:02.887Z,76.04
2023-05-14T10:57:32.263Z,74.68
2023-05-14T11:00:01.087Z,73.61
2023-05-14T11:02:33.643Z,74.75
2023-05-14T11:05:05.160Z,74.54
2023-05-14T11:07:34.217Z,73.71
2023-05-14T11:10:08.831Z,73.92
2023-05-14T11:12:40.870Z,74.98
2023-05-14T11:15:10.289Z,73.69
2023-05-14T11:17:38.609Z,74.13
2023-05-14T11:20:06.510Z,73.73
2023-05-14T11:22:33.377Z,71.10
2023-05-14T11:25:00.378Z,71.15
2023-05-14T11:27:27.269Z,69.61
2023-05-14T11:29:55.876Z,71.07
2023-05-14T11:32:22.601Z,70.35
2023-05-14T11:34:49.654Z,69.62
2023-05-14T11:37:17.011Z,70.25
2023-05-14T11:39:52.062Z,69.32
2023-05-14T11:42:20.599Z,67.59
2023-05-14T11:44:54.161Z,68.82
2023-05-14T11:47:21.834Z,68.24
2023-05-14T11:49:49.345Z,67.79
2023-05-14T11:52:19.562Z,67.84
2023-05-14T11:54:47.558Z,69.12
2023-05-14T11:57:16.948Z,67.77
2023-05-14T11:59:44.484Z,66.62
2023-05-14T12:02:13.484Z,65.20
2023-05-14T12:04:42.277Z,67.14
2023-05-14T12:07:11.427Z,66.47
2023-05-14T12:09:43.135Z,65.99
2023-05-14T12:12:12.835Z,65.18
2023-05-14T12:14:42.448Z,61.86
2023-05-14T12:17:20.920Z,63.46
2023-05-14T12:19:49.696Z,63.36
2023-05-14T12:22:24.457Z,61.47
2023-05-14T12:24:58.227Z,61.49
2023-05-14T12:27:29.719Z,61.00
2023-05-14T12:30:19.762Z,61.43
2023-05-14T12:32:51.702Z,62.24
2023-05-14T12:35:18.847Z,58.24
2023-05-14T12:37:45.568Z,57.59
2023-05-14T12:40:12.345Z,59.25
2023-05-14T12:42:38.846Z,56.52
2023-05-14T12:45:07.901Z,56.66
2023-05-14T12:47:35.010Z,56.02
2023-05-14T12:50:01.909Z,56.43
2023-05-14T12:52:37.405Z,56.09
2023-05-14T12:55:09.662Z,55.21
2023-05-14T12:57:37.359Z,57.66
2023-05-14T13:00:08.074Z,56.87
2023-05-14T13:02:42.832Z,57.92
2023-05-14T13:05:13.939Z,57.16
2023-05-14T13:07:40.752Z,55.16
2023-05-14T13:10:08.014Z,55.91
2023-05-14T13:12:34.599Z,54.85
2023-05-14T13:15:01.128Z,57.17
2023-05-14T13:17:28.093Z,56.32
2023-05-14T13:19:54.814Z,56.87
2023-05-14T13:22:21.328Z,55.50
2023-05-14T13:24:47.965Z,56.02
2023-05-14T13:27:14.540Z,55.54
2023-05-14T13:29:41.688Z,55.33
2023-05-14T13:32:08.988Z,52.72
2023-05-14T13:34:35.550Z,53.55
2023-05-14T13:37:02.092Z,51.33
2023-05-14T13:39:28.737Z,49.02
2023-05-14T13:41:56.731Z,49.09
2023-05-14T13:44:23.632Z,46.99
2023-05-14T13:46:50.591Z,44.30
2023-05-14T13:49:17.238Z,43.64
2023-05-14T13:51:44.220Z,43.02
2023-05-14T13:54:10.746Z,41.60
2023-05-14T13:56:37.520Z,41.87
2023-05-14T13:59:04.136Z,41.78
2023-05-14T14:01:31.734Z,42.20
2023-05-14T14:03:58.399Z,41.55
2023-05-14T14:06:27.473Z,41.13
2023-05-14T14:08:54.226Z,41.25
2023-05-14T14:11:20.850Z,42.75
2023-05-14T14:13:47.648Z,42.59
2023-05-14T14:16:14.358Z,45.37
2023-05-14T14:18:41.426Z,41.84
2023-05-14T14:21:07.952Z,39.70
2023-05-14T14:23:34.717Z,38.67
2023-05-14T14:26:01.260Z,38.93
2023-05-14T14:28:28.028Z,39.83
2023-05-14T14:30:54.498Z,37.59
2023-05-14T14:33:21.201Z,38.97
2023-05-14T14:35:47.886Z,37.96
2023-05-14T14:38:14.504Z,35.97
2023-05-14T14:40:41.332Z,37.09
2023-05-14T14:43:07.773Z,36.16
2023-05-14T14:45:34.679Z,34.74
2023-05-14T14:48:39.764Z,35.02
2023-05-14T14:51:07.234Z,33.69
2023-05-14T14:53:35.005Z,34.09
2023-05-14T14:56:02.233Z,33.01
2023-05-14T14:58:28.951Z,32.80
2023-05-14T15:00:56.699Z,34.55
2023-05-14T15:03:25.075Z,33.64
2023-05-14T15:05:53.337Z,32.10
2023-05-14T15:08:20.896Z,32.67
2023-05-14T15:10:47.533Z,33.92
2023-05-14T15:13:13.989Z,32.10
2023-05-14T15:15:40.708Z,31.75
2023-05-14T15:18:07.330Z,32.91
2023-05-14T15:20:34.031Z,35.62
2023-05-14T15:23:00.549Z,36.94
2023-05-14T15:25:27.403Z,37.24
2023-05-14T15:27:54.041Z,35.14
2023-05-14T15:30:20.578Z,39.59
2023-05-14T15:32:47.486Z,40.75
2023-05-14T15:35:14.103Z,38.59
2023-05-14T15:37:44.809Z,39.73
2023-05-14T15:40:11.990Z,39.70
2023-05-14T15:42:42.156Z,39.25
2023-05-14T15:45:13.027Z,36.92
2023-05-14T15:47:40.393Z,35.62
2023-05-14T15:50:07.843Z,34.93
2023-05-14T15:52:36.312Z,35.27
2023-05-14T15:55:04.978Z,34.83
2023-05-14T15:57:31.914Z,33.17
2023-05-14T15:59:58.477Z,34.91
2023-05-14T16:02:25.181Z,33.41
2023-05-14T16:04:51.645Z,33.43
2023-05-14T16:07:18.318Z,33.99
2023-05-14T16:09:44.741Z,34.38
2023-05-14T16:12:12.463Z,33.08
2023-05-14T16:14:41.245Z,33.33
2023-05-14T16:17:08.822Z,31.26
2023-05-14T16:19:35.284Z,34.06
2023-05-14T16:22:02.132Z,34.71
2023-05-14T16:24:28.633Z,35.37
2023-05-14T16:26:55.344Z,34.66
2023-05-14T16:29:22.494Z,33.96
2023-05-14T16:31:49.070Z,32.09
2023-05-14T16:34:16.183Z,31.97
2023-05-14T16:36:42.749Z,33.23
2023-05-14T16:39:09.391Z,32.02
2023-05-14T16:41:35.977Z,33.25
2023-05-14T16:44:03.407Z,32.28
2023-05-14T16:46:30.548Z,32.87
2023-05-14T16:48:57.152Z,31.91
2023-05-14T16:51:23.701Z,32.08
2023-05-14T16:53:51.250Z,33.44
2023-05-14T16:56:18.574Z,32.34
2023-05-14T16:58:45.383Z,31.78
2023-05-14T17:01:11.990Z,31.73
2023-05-14T17:03:38.641Z,32.57
2023-05-14T17:06:05.694Z,32.72
2023-05-14T17:08:32.472Z,32.46
2023-05-14T17:10:59.376Z,33.13
2023-05-14T17:13:25.776Z,35.17
2023-05-14T17:15:52.781Z,33.96
2023-05-14T17:18:19.444Z,34.52
2023-05-14T17:20:45.868Z,34.68
2023-05-14T17:23:12.497Z,36.14
2023-05-14T17:25:39.182Z,35.87
2023-05-14T17:28:06.149Z,36.83
2023-05-14T17:30:32.782Z,37.09
2023-05-14T17:32:59.418Z,37.01
2023-05-14T17:35:26.246Z,37.86
2023-05-14T17:37:52.990Z,37.79
2023-05-14T17:40:19.552Z,39.77
2023-05-14T17:42:46.411Z,38.86
2023-05-14T17:45:14.366Z,41.24
2023-05-14T17:47:41.186Z,39.63
2023-05-14T17:50:08.237Z,40.18
2023-05-14T17:52:34.763Z,39.81
2023-05-14T17:55:01.458Z,40.44
2023-05-14T17:57:27.986Z,42.69
2023-05-14T17:59:54.835Z,41.70
2023-05-14T18:02:21.304Z,42.56
2023-05-14T18:04:48.055Z,42.26
2023-05-14T18:07:14.651Z,43.58
2023-05-14T18:09:41.351Z,43.34
2023-05-14T18:12:08.427Z,43.49
2023-05-14T18:14:35.086Z,44.30
2023-05-14T18:17:01.782Z,46.51
2023-05-14T18:19:28.292Z,45.55
2023-05-14T18:21:55.601Z,45.85
2023-05-14T18:24:22.298Z,46.37
2023-05-14T18:26:49.023Z,47.26
2023-05-14T18:29:15.734Z,49.50
2023-05-14T18:31:42.200Z,50.42
2023-05-14T18:34:08.735Z,51.42
2023-05-14T18:36:35.333Z,53.26
2023-05-14T18:39:01.777Z,52.25
2023-05-14T18:41:28.570Z,52.29
2023-05-14T18:43:55.235Z,54.55
2023-05-14T18:46:21.976Z,54.81
2023-05-14T18:48:48.469Z,53.92
2023-05-14T18:51:15.156Z,58.57
2023-05-14T18:53:41.848Z,64.84
2023-05-14T18:56:09.429Z,71.11
2023-05-14T18:58:36.002Z,67.62
2023-05-14T19:01:02.472Z,69.84
2023-05-14T19:03:29.172Z,74.89
2023-05-14T19:05:55.878Z,74.25
2023-05-14T19:08:22.367Z,70.92
2023-05-14T19:10:48.954Z,71.89
2023-05-14T19:13:18.436Z,75.65
2023-05-14T19:15:44.913Z,73.89
2023-05-14T19:18:12.903Z,72.45
2023-05-14T19:20:39.456Z,71.57
2023-05-14T19:23:06.118Z,68.83
2023-05-14T19:25:33.976Z,76.58
2023-05-14T19:28:02.090Z,78.48
2023-05-14T19:30:28.511Z,74.46
2023-05-14T19:32:55.188Z,76.83
2023-05-14T19:35:21.824Z,77.59
2023-05-14T19:37:48.506Z,78.30
2023-05-14T19:40:14.970Z,78.70
2023-05-14T19:42:41.485Z,79.21
2023-05-14T19:45:08.132Z,82.00
2023-05-14T19:47:34.730Z,84.98
2023-05-14T19:50:01.269Z,88.75
2023-05-14T19:52:27.787Z,87.16
2023-05-14T19:54:54.360Z,88.88
2023-05-14T19:57:21.123Z,89.47
2023-05-14T19:59:47.696Z,91.10
2023-05-14T20:02:18.141Z,95.86
2023-05-14T20:04:45.948Z,92.49
2023-05-14T20:07:15.485Z,94.29
2023-05-14T20:09:42.242Z,96.17
2023-05-14T20:12:09.386Z,98.07
2023-05-14T20:14:36.081Z,99.78
2023-05-14T20:17:02.674Z,100.00
2023-05-14T20:19:29.305Z,100.00
2023-05-14T20:21:56.425Z,100.00
2023-05-14T20:24:22.970Z,100.00
2023-05-14T20:26:49.536Z,100.00
2023-05-14T20:29:16.243Z,100.00
2023-05-14T20:31:42.713Z,100.00
2023-05-14T20:34:09.416Z,100.00
2023-05-14T20:36:35.920Z,100.00
2023-05-14T20:39:02.852Z,100.00
2023-05-14T20:41:29.284Z,100.00
2023-05-14T20:43:55.753Z,100.00
2023-05-14T20:46:22.214Z,100.00
2023-05-14T20:48:48.761Z,100.00
2023-05-14T20:51:15.240Z,100.00
2023-05-14T20:53:41.732Z,100.00
2023-05-14T20:56:08.155Z,100.00
2023-05-14T20:58:35.482Z,100.00
2023-05-14T21:01:02.125Z,100.00
2023-05-14T21:03:29.052Z,100.00
2023-05-14T21:05:56.850Z,100.00
2023-05-14T21:08:23.340Z,100.00
2023-05-14T21:10:50.014Z,100.00
2023-05-14T21:13:16.491Z,100.00
2023-05-14T21:15:43.037Z,100.00
2023-05-14T21:18:09.652Z,100.00
2023-05-14T21:20:36.165Z,100.00
2023-05-14T21:23:02.663Z,100.00
2023-05-14T21:25:29.255Z,100.00
2023-05-14T21:27:56.691Z,100.00
2023-05-14T21:30:23.292Z,100.00
2023-05-14T21:32:49.751Z,100.00
2023-05-14T21:35:16.456Z,100.00
2023-05-14T21:37:43.371Z,100.00
2023-05-14T21:40:12.123Z,100.00
2023-05-14T21:42:39.586Z,100.00
2023-05-14T21:45:06.608Z,100.00
2023-05-14T21:47:33.628Z,100.00
2023-05-14T21:50:00.198Z,100.00
2023-05-14T21:52:27.048Z,100.00
2023-05-14T21:54:53.472Z,100.00
2023-05-14T21:57:20.108Z,100.00
2023-05-14T21:59:46.629Z,100.00
2023-05-14T22:02:13.243Z,100.00
2023-05-14T22:04:39.786Z,100.00
2023-05-14T22:07:06.280Z,100.00
2023-05-14T22:09:32.861Z,100.00
2023-05-14T22:11:59.746Z,100.00
2023-05-14T22:14:29.327Z,100.00
2023-05-14T22:16:56.790Z,100.00
2023-05-14T22:19:23.459Z,100.00
2023-05-14T22:21:50.054Z,100.00
2023-05-14T22:24:16.474Z,100.00
2023-05-14T22:26:43.035Z,100.00
2023-05-14T22:29:09.535Z,100.00
2023-05-14T22:31:36.281Z,100.00
2023-05-14T22:34:02.854Z,100.00
2023-05-14T22:36:29.452Z,100.00
2023-05-14T22:38:56.011Z,100.00
2023-05-14T22:41:22.442Z,100.00
2023-05-14T22:43:49.380Z,100.00
2023-05-14T22:46:16.310Z,100.00
2023-05-14T22:48:42.891Z,100.00
2023-05-14T22:51:09.488Z,100.00
2023-05-14T22:53:36.152Z,100.00
2023-05-14T22:56:03.099Z,100.00
2023-05-14T22:58:29.559Z,100.00
2023-05-14T23:00:56.579Z,100.00
2023-05-14T23:03:22.989Z,100.00
2023-05-14T23:05:49.617Z,100.00
2023-05-14T23:08:16.254Z,100.00
2023-05-14T23:10:42.799Z,100.00
2023-05-14T23:13:09.558Z,100.00
2023-05-14T23:15:36.107Z,100.00
2023-05-14T23:18:02.825Z,100.00
2023-05-14T23:20:29.491Z,100.00
2023-05-14T23:22:55.945Z,100.00
2023-05-14T23:25:22.709Z,100.00
2023-05-14T23:27:50.060Z,100.00
2023-05-14T23:30:16.880Z,100.00
2023-05-14T23:32:43.531Z,100.00
2023-05-14T23:35:10.271Z,100.00
2023-05-14T23:37:41.771Z,100.00
2023-05-14T23:40:09.475Z,100.00
2023-05-14T23:42:36.105Z,100.00
2023-05-14T23:45:02.633Z,100.00
2023-05-14T23:47:29.476Z,100.00
2023-05-14T23:49:55.935Z,100.00
2023-05-14T23:52:22.523Z,100.00
2023-05-14T23:54:49.069Z,100.00
2023-05-14T23:57:15.814Z,100.00
2023-05-14T23:59:42.478Z,100.00
